This is the latest recevied weather packets stored in our database for station/object HA5CD-6. If no packets are shown the sender has not sent any weather packets the latest 10 day(s).
| Time | Temp. | Humidity | Pressure | Rain* | Wind** | Luminosity | Snow |
|---|---|---|---|---|---|---|---|
| 1777585267 | 8.89° C | 35% | 1004 hPa | - | - | - | - |
| 1777584667 | 8.89° C | 35% | 1004 hPa | - | - | - | - |
| 1777584067 | 8.89° C | 35% | 1004 hPa | - | - | - | - |
| 1777583467 | 9.44° C | 35% | 1004 hPa | - | - | - | - |
| 1777582867 | 8.89° C | 36% | 1004 hPa | - | - | - | - |
| 1777582268 | 8.89° C | 35% | 1004 hPa | - | - | - | - |
| 1777581667 | 8.89° C | 35% | 1004 hPa | - | - | - | - |
| 1777581066 | 9.44° C | 35% | 1004 hPa | - | - | - | - |
| 1777580465 | 8.89° C | 35% | 1004 hPa | - | - | - | - |
| 1777579865 | 8.89° C | 35% | 1004 hPa | - | - | - | - |
| 1777579265 | 8.89° C | 35% | 1004 hPa | - | - | - | - |
| 1777578665 | 8.89° C | 34% | 1004 hPa | - | - | - | - |
| 1777578065 | 9.44° C | 34% | 1004 hPa | - | - | - | - |
| 1777577465 | 10° C | 33% | 1003 hPa | - | - | - | - |
| 1777576865 | 10° C | 31% | 1003 hPa | - | - | - | - |
| 1777576265 | 9.44° C | 33% | 1003 hPa | - | - | - | - |
| 1777575664 | 10° C | 33% | 1003 hPa | - | - | - | - |
| 1777575064 | 10.56° C | 32% | 1003 hPa | - | - | - | - |
| 1777574464 | 9.44° C | 36% | 1003 hPa | - | - | - | - |
| 1777573864 | 9.44° C | 37% | 1003 hPa | - | - | - | - |
| 1777573264 | 9.44° C | 38% | 1003 hPa | - | - | - | - |
| 1777572664 | 10° C | 37% | 1003 hPa | - | - | - | - |
| 1777572064 | 10.56° C | 34% | 1003 hPa | - | - | - | - |
| 1777571463 | 11.67° C | 30% | 1003 hPa | - | - | - | - |
| 1777570863 | 12.78° C | 27% | 1003 hPa | - | - | - | - |
* Rain since midnight (hover to see other rain measurements)
** Current wind speed in m/s (hover to see current wind gust speed)